sensor_id;sensor_type;location;lat;lon;timestamp;temperature;humidity
36424;DHT22;22458;45.328;9.514;2023-04-25T00:01:28;17.90;72.00
36424;DHT22;22458;45.328;9.514;2023-04-25T00:03:54;17.80;71.50
36424;DHT22;22458;45.328;9.514;2023-04-25T00:06:20;17.80;71.50
36424;DHT22;22458;45.328;9.514;2023-04-25T00:08:46;17.80;71.60
36424;DHT22;22458;45.328;9.514;2023-04-25T00:11:12;17.70;71.60
36424;DHT22;22458;45.328;9.514;2023-04-25T00:13:38;17.70;71.70
36424;DHT22;22458;45.328;9.514;2023-04-25T00:16:07;17.60;71.70
36424;DHT22;22458;45.328;9.514;2023-04-25T00:18:33;17.60;71.70
36424;DHT22;22458;45.328;9.514;2023-04-25T00:20:59;17.60;71.70
36424;DHT22;22458;45.328;9.514;2023-04-25T00:23:25;17.60;71.80
36424;DHT22;22458;45.328;9.514;2023-04-25T00:25:51;17.50;71.80
36424;DHT22;22458;45.328;9.514;2023-04-25T00:28:17;17.50;71.80
36424;DHT22;22458;45.328;9.514;2023-04-25T00:30:43;17.50;71.70
36424;DHT22;22458;45.328;9.514;2023-04-25T00:33:09;17.50;71.70
36424;DHT22;22458;45.328;9.514;2023-04-25T00:35:35;17.50;71.60
36424;DHT22;22458;45.328;9.514;2023-04-25T00:38:01;17.50;71.60
36424;DHT22;22458;45.328;9.514;2023-04-25T00:40:28;17.50;71.60
36424;DHT22;22458;45.328;9.514;2023-04-25T00:42:54;17.40;71.60
36424;DHT22;22458;45.328;9.514;2023-04-25T00:45:20;17.30;71.90
36424;DHT22;22458;45.328;9.514;2023-04-25T00:47:46;17.30;72.00
36424;DHT22;22458;45.328;9.514;2023-04-25T00:50:13;17.30;72.10
36424;DHT22;22458;45.328;9.514;2023-04-25T00:52:41;17.30;72.20
36424;DHT22;22458;45.328;9.514;2023-04-25T00:55:08;17.30;72.10
36424;DHT22;22458;45.328;9.514;2023-04-25T00:57:36;17.20;72.10
36424;DHT22;22458;45.328;9.514;2023-04-25T01:00:04;17.20;72.30
36424;DHT22;22458;45.328;9.514;2023-04-25T01:02:32;17.20;72.40
36424;DHT22;22458;45.328;9.514;2023-04-25T01:04:58;17.10;72.40
36424;DHT22;22458;45.328;9.514;2023-04-25T01:07:24;17.20;72.50
36424;DHT22;22458;45.328;9.514;2023-04-25T01:09:54;17.10;72.50
36424;DHT22;22458;45.328;9.514;2023-04-25T01:12:20;17.10;72.70
36424;DHT22;22458;45.328;9.514;2023-04-25T01:14:46;17.10;72.80
36424;DHT22;22458;45.328;9.514;2023-04-25T01:17:13;17.10;72.80
36424;DHT22;22458;45.328;9.514;2023-04-25T01:19:38;17.10;72.90
36424;DHT22;22458;45.328;9.514;2023-04-25T01:22:05;17.00;72.90
36424;DHT22;22458;45.328;9.514;2023-04-25T01:24:33;17.00;72.90
36424;DHT22;22458;45.328;9.514;2023-04-25T01:27:00;17.00;73.00
36424;DHT22;22458;45.328;9.514;2023-04-25T01:29:27;17.00;72.70
36424;DHT22;22458;45.328;9.514;2023-04-25T01:31:54;16.90;72.90
36424;DHT22;22458;45.328;9.514;2023-04-25T01:34:20;17.00;73.10
36424;DHT22;22458;45.328;9.514;2023-04-25T01:36:50;16.90;73.10
36424;DHT22;22458;45.328;9.514;2023-04-25T01:39:17;16.90;73.20
36424;DHT22;22458;45.328;9.514;2023-04-25T01:41:45;16.90;73.20
36424;DHT22;22458;45.328;9.514;2023-04-25T01:44:11;16.90;73.30
36424;DHT22;22458;45.328;9.514;2023-04-25T01:46:36;16.90;73.30
36424;DHT22;22458;45.328;9.514;2023-04-25T01:49:04;16.80;73.30
36424;DHT22;22458;45.328;9.514;2023-04-25T01:51:30;16.80;73.30
36424;DHT22;22458;45.328;9.514;2023-04-25T01:53:57;16.80;73.30
36424;DHT22;22458;45.328;9.514;2023-04-25T01:56:24;16.80;73.30
36424;DHT22;22458;45.328;9.514;2023-04-25T01:58:50;16.70;73.40
36424;DHT22;22458;45.328;9.514;2023-04-25T02:01:19;16.70;73.50
36424;DHT22;22458;45.328;9.514;2023-04-25T02:03:55;16.70;73.30
36424;DHT22;22458;45.328;9.514;2023-04-25T02:06:30;16.70;73.40
36424;DHT22;22458;45.328;9.514;2023-04-25T02:08:57;16.70;74.20
36424;DHT22;22458;45.328;9.514;2023-04-25T02:11:22;16.60;73.70
36424;DHT22;22458;45.328;9.514;2023-04-25T02:14:22;16.60;73.80
36424;DHT22;22458;45.328;9.514;2023-04-25T02:16:55;16.60;74.00
36424;DHT22;22458;45.328;9.514;2023-04-25T02:19:22;16.50;74.10
36424;DHT22;22458;45.328;9.514;2023-04-25T02:21:48;16.50;74.30
36424;DHT22;22458;45.328;9.514;2023-04-25T02:24:13;16.40;74.50
36424;DHT22;22458;45.328;9.514;2023-04-25T02:26:39;16.40;74.70
36424;DHT22;22458;45.328;9.514;2023-04-25T02:29:07;16.40;74.80
36424;DHT22;22458;45.328;9.514;2023-04-25T02:31:34;16.40;74.80
36424;DHT22;22458;45.328;9.514;2023-04-25T02:34:00;16.40;74.90
36424;DHT22;22458;45.328;9.514;2023-04-25T02:36:26;16.30;75.00
36424;DHT22;22458;45.328;9.514;2023-04-25T02:38:53;16.40;75.10
36424;DHT22;22458;45.328;9.514;2023-04-25T02:41:20;16.40;75.10
36424;DHT22;22458;45.328;9.514;2023-04-25T02:43:47;16.30;75.10
36424;DHT22;22458;45.328;9.514;2023-04-25T02:46:12;16.30;75.10
36424;DHT22;22458;45.328;9.514;2023-04-25T02:48:39;16.20;75.90
36424;DHT22;22458;45.328;9.514;2023-04-25T02:51:04;16.20;75.60
36424;DHT22;22458;45.328;9.514;2023-04-25T02:53:30;16.20;75.70
36424;DHT22;22458;45.328;9.514;2023-04-25T02:55:56;16.20;75.70
36424;DHT22;22458;45.328;9.514;2023-04-25T02:58:24;16.20;75.80
36424;DHT22;22458;45.328;9.514;2023-04-25T03:00:52;16.10;75.70
36424;DHT22;22458;45.328;9.514;2023-04-25T03:03:18;16.00;75.80
36424;DHT22;22458;45.328;9.514;2023-04-25T03:05:49;16.00;75.90
36424;DHT22;22458;45.328;9.514;2023-04-25T03:08:19;16.00;76.00
36424;DHT22;22458;45.328;9.514;2023-04-25T03:10:45;15.90;76.10
36424;DHT22;22458;45.328;9.514;2023-04-25T03:13:14;15.90;76.20
36424;DHT22;22458;45.328;9.514;2023-04-25T03:15:42;15.80;76.40
36424;DHT22;22458;45.328;9.514;2023-04-25T03:18:08;15.70;76.50
36424;DHT22;22458;45.328;9.514;2023-04-25T03:20:34;15.70;76.70
36424;DHT22;22458;45.328;9.514;2023-04-25T03:23:00;15.70;76.90
36424;DHT22;22458;45.328;9.514;2023-04-25T03:25:26;15.60;77.20
36424;DHT22;22458;45.328;9.514;2023-04-25T03:27:52;15.60;77.40
36424;DHT22;22458;45.328;9.514;2023-04-25T03:30:18;15.60;77.50
36424;DHT22;22458;45.328;9.514;2023-04-25T03:32:48;15.60;77.60
36424;DHT22;22458;45.328;9.514;2023-04-25T03:35:16;15.60;77.60
36424;DHT22;22458;45.328;9.514;2023-04-25T03:37:42;15.50;77.60
36424;DHT22;22458;45.328;9.514;2023-04-25T03:40:12;15.50;77.70
36424;DHT22;22458;45.328;9.514;2023-04-25T03:43:07;15.40;77.90
36424;DHT22;22458;45.328;9.514;2023-04-25T03:45:33;15.30;77.90
36424;DHT22;22458;45.328;9.514;2023-04-25T03:47:59;15.30;78.00
36424;DHT22;22458;45.328;9.514;2023-04-25T03:50:28;15.30;78.20
36424;DHT22;22458;45.328;9.514;2023-04-25T03:52:53;15.30;78.20
36424;DHT22;22458;45.328;9.514;2023-04-25T03:55:19;15.30;78.30
36424;DHT22;22458;45.328;9.514;2023-04-25T03:57:45;15.40;78.50
36424;DHT22;22458;45.328;9.514;2023-04-25T04:00:12;15.40;78.50
36424;DHT22;22458;45.328;9.514;2023-04-25T04:02:41;15.40;78.50
36424;DHT22;22458;45.328;9.514;2023-04-25T04:05:09;15.40;78.60
36424;DHT22;22458;45.328;9.514;2023-04-25T04:07:40;15.40;78.60
36424;DHT22;22458;45.328;9.514;2023-04-25T04:10:10;15.50;78.80
36424;DHT22;22458;45.328;9.514;2023-04-25T04:12:38;15.50;78.40
36424;DHT22;22458;45.328;9.514;2023-04-25T04:15:06;15.50;78.50
36424;DHT22;22458;45.328;9.514;2023-04-25T04:17:35;15.50;78.50
36424;DHT22;22458;45.328;9.514;2023-04-25T04:20:01;15.50;78.50
36424;DHT22;22458;45.328;9.514;2023-04-25T04:22:30;15.50;78.80
36424;DHT22;22458;45.328;9.514;2023-04-25T04:24:59;15.40;78.80
36424;DHT22;22458;45.328;9.514;2023-04-25T04:27:47;15.50;78.80
36424;DHT22;22458;45.328;9.514;2023-04-25T04:30:36;15.50;78.80
36424;DHT22;22458;45.328;9.514;2023-04-25T04:33:05;15.50;78.90
36424;DHT22;22458;45.328;9.514;2023-04-25T04:35:33;15.50;78.80
36424;DHT22;22458;45.328;9.514;2023-04-25T04:37:59;15.40;79.10
36424;DHT22;22458;45.328;9.514;2023-04-25T04:40:29;15.50;79.40
36424;DHT22;22458;45.328;9.514;2023-04-25T04:43:11;15.50;79.50
36424;DHT22;22458;45.328;9.514;2023-04-25T04:45:55;15.50;79.60
36424;DHT22;22458;45.328;9.514;2023-04-25T04:48:32;15.40;79.80
36424;DHT22;22458;45.328;9.514;2023-04-25T04:51:25;15.40;80.00
36424;DHT22;22458;45.328;9.514;2023-04-25T04:54:08;15.40;80.00
36424;DHT22;22458;45.328;9.514;2023-04-25T04:56:52;15.50;80.20
36424;DHT22;22458;45.328;9.514;2023-04-25T04:59:52;15.50;80.10
36424;DHT22;22458;45.328;9.514;2023-04-25T05:02:39;15.50;80.00
36424;DHT22;22458;45.328;9.514;2023-04-25T05:05:24;15.50;80.00
36424;DHT22;22458;45.328;9.514;2023-04-25T05:07:58;15.50;80.00
36424;DHT22;22458;45.328;9.514;2023-04-25T05:11:00;15.40;80.00
36424;DHT22;22458;45.328;9.514;2023-04-25T05:13:37;15.40;80.10
36424;DHT22;22458;45.328;9.514;2023-04-25T05:16:23;15.40;80.50
36424;DHT22;22458;45.328;9.514;2023-04-25T05:19:15;15.40;80.60
36424;DHT22;22458;45.328;9.514;2023-04-25T05:21:48;15.40;80.80
36424;DHT22;22458;45.328;9.514;2023-04-25T05:24:26;15.40;80.80
36424;DHT22;22458;45.328;9.514;2023-04-25T05:27:18;15.40;80.90
36424;DHT22;22458;45.328;9.514;2023-04-25T05:29:58;15.40;80.90
36424;DHT22;22458;45.328;9.514;2023-04-25T05:32:32;15.50;81.10
36424;DHT22;22458;45.328;9.514;2023-04-25T05:34:57;15.50;81.10
36424;DHT22;22458;45.328;9.514;2023-04-25T05:37:26;15.50;81.10
36424;DHT22;22458;45.328;9.514;2023-04-25T05:39:55;15.50;81.20
36424;DHT22;22458;45.328;9.514;2023-04-25T05:42:50;15.50;81.20
36424;DHT22;22458;45.328;9.514;2023-04-25T05:45:22;15.50;81.40
36424;DHT22;22458;45.328;9.514;2023-04-25T05:48:11;15.60;81.50
36424;DHT22;22458;45.328;9.514;2023-04-25T05:50:55;15.70;81.40
36424;DHT22;22458;45.328;9.514;2023-04-25T05:53:44;15.70;81.40
36424;DHT22;22458;45.328;9.514;2023-04-25T05:56:12;15.70;81.30
36424;DHT22;22458;45.328;9.514;2023-04-25T05:58:39;15.70;81.40
36424;DHT22;22458;45.328;9.514;2023-04-25T06:01:06;15.80;81.40
36424;DHT22;22458;45.328;9.514;2023-04-25T06:03:32;15.80;81.30
36424;DHT22;22458;45.328;9.514;2023-04-25T06:05:58;15.80;81.20
36424;DHT22;22458;45.328;9.514;2023-04-25T06:08:25;15.90;81.20
36424;DHT22;22458;45.328;9.514;2023-04-25T06:10:51;15.90;81.20
36424;DHT22;22458;45.328;9.514;2023-04-25T06:13:16;16.00;81.20
36424;DHT22;22458;45.328;9.514;2023-04-25T06:15:42;16.10;81.30
36424;DHT22;22458;45.328;9.514;2023-04-25T06:18:08;16.10;81.10
36424;DHT22;22458;45.328;9.514;2023-04-25T06:20:34;16.20;81.00
36424;DHT22;22458;45.328;9.514;2023-04-25T06:23:00;16.30;81.00
36424;DHT22;22458;45.328;9.514;2023-04-25T06:25:36;16.30;80.90
36424;DHT22;22458;45.328;9.514;2023-04-25T06:28:02;16.30;80.90
36424;DHT22;22458;45.328;9.514;2023-04-25T06:30:28;16.30;80.80
36424;DHT22;22458;45.328;9.514;2023-04-25T06:33:06;16.40;80.80
36424;DHT22;22458;45.328;9.514;2023-04-25T06:35:36;16.50;80.70
36424;DHT22;22458;45.328;9.514;2023-04-25T06:38:03;16.50;80.60
36424;DHT22;22458;45.328;9.514;2023-04-25T06:40:30;16.60;80.50
36424;DHT22;22458;45.328;9.514;2023-04-25T06:42:55;16.70;80.80
36424;DHT22;22458;45.328;9.514;2023-04-25T06:45:47;16.80;80.10
36424;DHT22;22458;45.328;9.514;2023-04-25T06:48:12;16.90;80.00
36424;DHT22;22458;45.328;9.514;2023-04-25T06:50:38;17.00;79.90
36424;DHT22;22458;45.328;9.514;2023-04-25T06:53:04;17.10;79.90
36424;DHT22;22458;45.328;9.514;2023-04-25T06:55:30;17.10;79.60
36424;DHT22;22458;45.328;9.514;2023-04-25T06:58:06;17.20;79.40
36424;DHT22;22458;45.328;9.514;2023-04-25T07:00:51;17.30;79.10
36424;DHT22;22458;45.328;9.514;2023-04-25T07:03:19;17.40;78.80
36424;DHT22;22458;45.328;9.514;2023-04-25T07:05:46;17.40;78.50
36424;DHT22;22458;45.328;9.514;2023-04-25T07:08:12;17.50;78.40
36424;DHT22;22458;45.328;9.514;2023-04-25T07:10:37;17.60;78.40
36424;DHT22;22458;45.328;9.514;2023-04-25T07:13:04;17.60;78.20
36424;DHT22;22458;45.328;9.514;2023-04-25T07:15:30;17.70;78.00
36424;DHT22;22458;45.328;9.514;2023-04-25T07:17:57;17.70;77.80
36424;DHT22;22458;45.328;9.514;2023-04-25T07:20:22;17.80;77.70
36424;DHT22;22458;45.328;9.514;2023-04-25T07:22:48;17.80;77.70
36424;DHT22;22458;45.328;9.514;2023-04-25T07:25:16;17.90;77.60
36424;DHT22;22458;45.328;9.514;2023-04-25T07:27:41;17.90;77.30
36424;DHT22;22458;45.328;9.514;2023-04-25T07:30:13;18.00;77.00
36424;DHT22;22458;45.328;9.514;2023-04-25T07:32:39;18.10;76.70
36424;DHT22;22458;45.328;9.514;2023-04-25T07:35:06;18.10;76.40
36424;DHT22;22458;45.328;9.514;2023-04-25T07:37:33;18.20;76.10
36424;DHT22;22458;45.328;9.514;2023-04-25T07:40:09;18.30;75.60
36424;DHT22;22458;45.328;9.514;2023-04-25T07:42:38;18.30;75.30
36424;DHT22;22458;45.328;9.514;2023-04-25T07:45:06;18.40;75.00
36424;DHT22;22458;45.328;9.514;2023-04-25T07:47:33;18.60;74.80
36424;DHT22;22458;45.328;9.514;2023-04-25T07:49:59;18.60;74.40
36424;DHT22;22458;45.328;9.514;2023-04-25T07:52:24;18.70;74.00
36424;DHT22;22458;45.328;9.514;2023-04-25T07:54:58;18.70;73.60
36424;DHT22;22458;45.328;9.514;2023-04-25T07:57:33;18.80;73.30
36424;DHT22;22458;45.328;9.514;2023-04-25T07:59:59;18.70;73.10
36424;DHT22;22458;45.328;9.514;2023-04-25T08:02:26;18.80;72.90
36424;DHT22;22458;45.328;9.514;2023-04-25T08:04:54;18.80;72.80
36424;DHT22;22458;45.328;9.514;2023-04-25T08:07:20;18.90;72.70
36424;DHT22;22458;45.328;9.514;2023-04-25T08:09:54;18.90;72.40
36424;DHT22;22458;45.328;9.514;2023-04-25T08:12:28;19.00;72.30
36424;DHT22;22458;45.328;9.514;2023-04-25T08:14:58;19.10;72.20
36424;DHT22;22458;45.328;9.514;2023-04-25T08:17:27;19.10;71.80
36424;DHT22;22458;45.328;9.514;2023-04-25T08:19:53;19.10;71.70
36424;DHT22;22458;45.328;9.514;2023-04-25T08:22:25;19.10;71.70
36424;DHT22;22458;45.328;9.514;2023-04-25T08:24:58;19.30;71.40
36424;DHT22;22458;45.328;9.514;2023-04-25T08:27:24;19.40;71.10
36424;DHT22;22458;45.328;9.514;2023-04-25T08:29:50;19.50;70.70
36424;DHT22;22458;45.328;9.514;2023-04-25T08:32:18;19.60;70.20
36424;DHT22;22458;45.328;9.514;2023-04-25T08:34:57;19.60;70.00
36424;DHT22;22458;45.328;9.514;2023-04-25T08:37:23;19.60;70.10
36424;DHT22;22458;45.328;9.514;2023-04-25T08:39:55;19.70;70.30
36424;DHT22;22458;45.328;9.514;2023-04-25T08:42:48;19.70;70.40
36424;DHT22;22458;45.328;9.514;2023-04-25T08:45:14;19.70;70.10
36424;DHT22;22458;45.328;9.514;2023-04-25T08:47:45;19.80;70.00
36424;DHT22;22458;45.328;9.514;2023-04-25T08:50:11;19.90;69.90
36424;DHT22;22458;45.328;9.514;2023-04-25T08:52:43;19.90;69.90
36424;DHT22;22458;45.328;9.514;2023-04-25T08:55:12;19.90;69.80
36424;DHT22;22458;45.328;9.514;2023-04-25T08:57:42;19.90;69.80
36424;DHT22;22458;45.328;9.514;2023-04-25T09:00:10;20.00;69.70
36424;DHT22;22458;45.328;9.514;2023-04-25T09:02:39;20.00;69.40
36424;DHT22;22458;45.328;9.514;2023-04-25T09:05:07;20.00;69.30
36424;DHT22;22458;45.328;9.514;2023-04-25T09:07:36;20.10;69.20
36424;DHT22;22458;45.328;9.514;2023-04-25T09:10:02;20.10;69.10
36424;DHT22;22458;45.328;9.514;2023-04-25T09:12:31;20.10;68.50
36424;DHT22;22458;45.328;9.514;2023-04-25T09:17:56;20.30;68.30
36424;DHT22;22458;45.328;9.514;2023-04-25T09:20:24;20.40;67.70
36424;DHT22;22458;45.328;9.514;2023-04-25T09:23:04;20.60;67.20
36424;DHT22;22458;45.328;9.514;2023-04-25T09:25:37;20.60;66.80
36424;DHT22;22458;45.328;9.514;2023-04-25T09:28:08;20.70;66.50
36424;DHT22;22458;45.328;9.514;2023-04-25T09:30:35;20.70;66.60
36424;DHT22;22458;45.328;9.514;2023-04-25T09:33:31;20.80;66.50
36424;DHT22;22458;45.328;9.514;2023-04-25T09:36:09;20.90;66.10
36424;DHT22;22458;45.328;9.514;2023-04-25T09:38:55;21.00;66.20
36424;DHT22;22458;45.328;9.514;2023-04-25T09:41:26;21.20;66.10
36424;DHT22;22458;45.328;9.514;2023-04-25T09:43:57;21.30;65.70
36424;DHT22;22458;45.328;9.514;2023-04-25T09:46:34;21.30;64.90
36424;DHT22;22458;45.328;9.514;2023-04-25T09:49:06;21.30;64.50
36424;DHT22;22458;45.328;9.514;2023-04-25T09:51:39;21.20;64.70
36424;DHT22;22458;45.328;9.514;2023-04-25T09:54:06;21.10;64.70
36424;DHT22;22458;45.328;9.514;2023-04-25T09:56:41;21.20;64.50
36424;DHT22;22458;45.328;9.514;2023-04-25T09:59:09;21.30;64.40
36424;DHT22;22458;45.328;9.514;2023-04-25T10:01:40;21.40;64.30
36424;DHT22;22458;45.328;9.514;2023-04-25T10:04:24;21.50;64.10
36424;DHT22;22458;45.328;9.514;2023-04-25T10:06:57;21.60;63.80
36424;DHT22;22458;45.328;9.514;2023-04-25T10:09:26;21.60;63.50
36424;DHT22;22458;45.328;9.514;2023-04-25T10:11:54;21.70;63.20
36424;DHT22;22458;45.328;9.514;2023-04-25T10:14:21;21.80;62.90
36424;DHT22;22458;45.328;9.514;2023-04-25T10:16:47;22.00;62.80
36424;DHT22;22458;45.328;9.514;2023-04-25T10:19:14;22.10;62.70
36424;DHT22;22458;45.328;9.514;2023-04-25T10:21:48;22.20;62.40
36424;DHT22;22458;45.328;9.514;2023-04-25T10:24:15;22.40;62.10
36424;DHT22;22458;45.328;9.514;2023-04-25T10:26:41;22.50;61.90
36424;DHT22;22458;45.328;9.514;2023-04-25T10:29:09;22.60;61.50
36424;DHT22;22458;45.328;9.514;2023-04-25T10:31:47;22.80;61.00
36424;DHT22;22458;45.328;9.514;2023-04-25T10:34:13;22.90;60.40
36424;DHT22;22458;45.328;9.514;2023-04-25T10:36:41;23.00;60.70
36424;DHT22;22458;45.328;9.514;2023-04-25T10:39:08;23.10;60.40
36424;DHT22;22458;45.328;9.514;2023-04-25T10:42:01;23.20;60.60
36424;DHT22;22458;45.328;9.514;2023-04-25T10:44:28;23.40;59.60
36424;DHT22;22458;45.328;9.514;2023-04-25T10:46:59;23.40;59.60
36424;DHT22;22458;45.328;9.514;2023-04-25T10:49:30;23.50;59.20
36424;DHT22;22458;45.328;9.514;2023-04-25T10:52:26;23.70;59.00
36424;DHT22;22458;45.328;9.514;2023-04-25T10:54:56;23.70;58.10
36424;DHT22;22458;45.328;9.514;2023-04-25T10:57:32;23.70;57.80
36424;DHT22;22458;45.328;9.514;2023-04-25T11:00:00;23.70;58.10
36424;DHT22;22458;45.328;9.514;2023-04-25T11:02:27;23.60;57.50
36424;DHT22;22458;45.328;9.514;2023-04-25T11:04:54;23.60;57.50
36424;DHT22;22458;45.328;9.514;2023-04-25T11:09:52;23.60;57.30
36424;DHT22;22458;45.328;9.514;2023-04-25T11:12:18;23.70;57.10
36424;DHT22;22458;45.328;9.514;2023-04-25T11:14:44;23.90;57.30
36424;DHT22;22458;45.328;9.514;2023-04-25T11:17:10;24.00;56.60
36424;DHT22;22458;45.328;9.514;2023-04-25T11:19:36;24.10;56.20
36424;DHT22;22458;45.328;9.514;2023-04-25T11:22:03;24.20;55.60
36424;DHT22;22458;45.328;9.514;2023-04-25T11:24:30;24.20;55.20
36424;DHT22;22458;45.328;9.514;2023-04-25T11:26:58;24.20;55.00
36424;DHT22;22458;45.328;9.514;2023-04-25T11:29:31;24.20;54.90
36424;DHT22;22458;45.328;9.514;2023-04-25T11:31:57;24.20;54.60
36424;DHT22;22458;45.328;9.514;2023-04-25T11:34:27;24.30;54.90
36424;DHT22;22458;45.328;9.514;2023-04-25T11:36:56;24.30;54.50
36424;DHT22;22458;45.328;9.514;2023-04-25T11:39:24;24.30;54.20
36424;DHT22;22458;45.328;9.514;2023-04-25T11:41:50;24.50;53.90
36424;DHT22;22458;45.328;9.514;2023-04-25T11:44:17;24.60;53.80
36424;DHT22;22458;45.328;9.514;2023-04-25T11:46:44;24.80;53.30
36424;DHT22;22458;45.328;9.514;2023-04-25T11:49:10;25.10;52.60
36424;DHT22;22458;45.328;9.514;2023-04-25T11:51:44;25.40;52.00
36424;DHT22;22458;45.328;9.514;2023-04-25T11:54:10;25.70;51.00
36424;DHT22;22458;45.328;9.514;2023-04-25T11:56:37;25.90;50.70
36424;DHT22;22458;45.328;9.514;2023-04-25T11:59:04;25.70;50.30
36424;DHT22;22458;45.328;9.514;2023-04-25T12:01:35;25.40;50.70
36424;DHT22;22458;45.328;9.514;2023-04-25T12:04:12;25.70;51.00
36424;DHT22;22458;45.328;9.514;2023-04-25T12:06:39;26.10;50.70
36424;DHT22;22458;45.328;9.514;2023-04-25T12:09:08;26.80;49.90
36424;DHT22;22458;45.328;9.514;2023-04-25T12:11:49;27.40;48.40
36424;DHT22;22458;45.328;9.514;2023-04-25T12:14:29;28.20;47.50
36424;DHT22;22458;45.328;9.514;2023-04-25T12:16:58;28.70;46.40
36424;DHT22;22458;45.328;9.514;2023-04-25T12:19:24;29.20;45.90
36424;DHT22;22458;45.328;9.514;2023-04-25T12:21:51;29.20;46.50
36424;DHT22;22458;45.328;9.514;2023-04-25T12:24:21;29.10;46.10
36424;DHT22;22458;45.328;9.514;2023-04-25T12:26:51;29.00;45.90
36424;DHT22;22458;45.328;9.514;2023-04-25T12:29:22;28.90;46.20
36424;DHT22;22458;45.328;9.514;2023-04-25T12:31:49;28.80;46.40
36424;DHT22;22458;45.328;9.514;2023-04-25T12:34:15;28.70;46.20
36424;DHT22;22458;45.328;9.514;2023-04-25T12:36:41;28.40;46.10
36424;DHT22;22458;45.328;9.514;2023-04-25T12:39:07;28.40;46.30
36424;DHT22;22458;45.328;9.514;2023-04-25T12:41:33;28.40;46.20
36424;DHT22;22458;45.328;9.514;2023-04-25T12:43:59;28.50;45.50
36424;DHT22;22458;45.328;9.514;2023-04-25T12:46:25;28.40;45.00
36424;DHT22;22458;45.328;9.514;2023-04-25T12:48:51;28.20;44.90
36424;DHT22;22458;45.328;9.514;2023-04-25T12:51:16;28.10;44.60
36424;DHT22;22458;45.328;9.514;2023-04-25T12:53:42;27.70;44.10
36424;DHT22;22458;45.328;9.514;2023-04-25T12:56:08;27.40;44.40
36424;DHT22;22458;45.328;9.514;2023-04-25T12:58:34;27.10;44.60
36424;DHT22;22458;45.328;9.514;2023-04-25T13:01:00;26.80;44.90
36424;DHT22;22458;45.328;9.514;2023-04-25T13:03:26;26.60;44.90
36424;DHT22;22458;45.328;9.514;2023-04-25T13:05:52;26.50;45.30
36424;DHT22;22458;45.328;9.514;2023-04-25T13:08:21;26.30;45.80
36424;DHT22;22458;45.328;9.514;2023-04-25T13:10:49;26.00;45.20
36424;DHT22;22458;45.328;9.514;2023-04-25T13:13:15;25.80;46.00
36424;DHT22;22458;45.328;9.514;2023-04-25T13:15:42;25.60;45.80
36424;DHT22;22458;45.328;9.514;2023-04-25T13:18:07;25.40;46.30
36424;DHT22;22458;45.328;9.514;2023-04-25T13:20:33;25.20;46.40
36424;DHT22;22458;45.328;9.514;2023-04-25T13:22:59;25.00;46.70
36424;DHT22;22458;45.328;9.514;2023-04-25T13:25:27;24.80;46.50
36424;DHT22;22458;45.328;9.514;2023-04-25T13:27:53;24.20;45.70
36424;DHT22;22458;45.328;9.514;2023-04-25T13:30:19;23.70;45.50
36424;DHT22;22458;45.328;9.514;2023-04-25T13:32:44;23.10;46.60
36424;DHT22;22458;45.328;9.514;2023-04-25T13:35:12;22.50;48.10
36424;DHT22;22458;45.328;9.514;2023-04-25T13:37:39;21.60;50.80
36424;DHT22;22458;45.328;9.514;2023-04-25T13:40:07;20.80;53.60
36424;DHT22;22458;45.328;9.514;2023-04-25T13:42:37;20.10;56.50
36424;DHT22;22458;45.328;9.514;2023-04-25T13:45:03;19.40;59.00
36424;DHT22;22458;45.328;9.514;2023-04-25T13:47:29;18.90;61.20
36424;DHT22;22458;45.328;9.514;2023-04-25T13:49:55;18.40;64.10
36424;DHT22;22458;45.328;9.514;2023-04-25T13:52:21;17.90;64.20
36424;DHT22;22458;45.328;9.514;2023-04-25T13:54:49;17.60;64.90
36424;DHT22;22458;45.328;9.514;2023-04-25T13:57:17;17.60;66.00
36424;DHT22;22458;45.328;9.514;2023-04-25T13:59:42;17.70;67.10
36424;DHT22;22458;45.328;9.514;2023-04-25T14:02:08;17.70;68.20
36424;DHT22;22458;45.328;9.514;2023-04-25T14:04:34;17.80;69.00
36424;DHT22;22458;45.328;9.514;2023-04-25T14:07:00;17.80;69.50
36424;DHT22;22458;45.328;9.514;2023-04-25T14:09:28;17.90;69.30
36424;DHT22;22458;45.328;9.514;2023-04-25T14:11:54;18.00;68.90
36424;DHT22;22458;45.328;9.514;2023-04-25T14:14:21;18.10;68.80
36424;DHT22;22458;45.328;9.514;2023-04-25T14:16:48;18.10;68.40
36424;DHT22;22458;45.328;9.514;2023-04-25T14:19:14;18.40;68.40
36424;DHT22;22458;45.328;9.514;2023-04-25T14:21:43;18.80;69.20
36424;DHT22;22458;45.328;9.514;2023-04-25T14:24:10;19.30;69.00
36424;DHT22;22458;45.328;9.514;2023-04-25T14:26:39;19.90;68.30
36424;DHT22;22458;45.328;9.514;2023-04-25T14:29:06;20.40;67.90
36424;DHT22;22458;45.328;9.514;2023-04-25T14:31:33;20.70;67.60
36424;DHT22;22458;45.328;9.514;2023-04-25T14:33:59;21.00;67.10
36424;DHT22;22458;45.328;9.514;2023-04-25T14:36:25;21.20;66.60
36424;DHT22;22458;45.328;9.514;2023-04-25T14:38:52;21.30;66.40
36424;DHT22;22458;45.328;9.514;2023-04-25T14:41:18;21.30;66.50
36424;DHT22;22458;45.328;9.514;2023-04-25T14:43:44;21.40;66.10
36424;DHT22;22458;45.328;9.514;2023-04-25T14:46:10;21.50;65.20
36424;DHT22;22458;45.328;9.514;2023-04-25T14:48:36;21.70;64.20
36424;DHT22;22458;45.328;9.514;2023-04-25T14:51:02;22.10;63.90
36424;DHT22;22458;45.328;9.514;2023-04-25T14:53:28;22.70;61.60
36424;DHT22;22458;45.328;9.514;2023-04-25T14:55:54;23.90;59.30
36424;DHT22;22458;45.328;9.514;2023-04-25T14:58:20;25.20;56.50
36424;DHT22;22458;45.328;9.514;2023-04-25T15:00:46;26.70;54.00
36424;DHT22;22458;45.328;9.514;2023-04-25T15:03:12;28.00;51.60
36424;DHT22;22458;45.328;9.514;2023-04-25T15:05:39;28.80;49.90
36424;DHT22;22458;45.328;9.514;2023-04-25T15:08:05;29.00;50.10
36424;DHT22;22458;45.328;9.514;2023-04-25T15:10:32;28.90;49.50
36424;DHT22;22458;45.328;9.514;2023-04-25T15:12:58;28.50;49.20
36424;DHT22;22458;45.328;9.514;2023-04-25T15:15:25;28.00;49.10
36424;DHT22;22458;45.328;9.514;2023-04-25T15:17:52;27.70;49.60
36424;DHT22;22458;45.328;9.514;2023-04-25T15:20:19;27.50;49.70
36424;DHT22;22458;45.328;9.514;2023-04-25T15:22:45;27.70;49.80
36424;DHT22;22458;45.328;9.514;2023-04-25T15:25:11;28.10;49.30
36424;DHT22;22458;45.328;9.514;2023-04-25T15:27:38;28.70;47.60
36424;DHT22;22458;45.328;9.514;2023-04-25T15:30:08;28.80;46.90
36424;DHT22;22458;45.328;9.514;2023-04-25T15:32:36;28.80;46.30
36424;DHT22;22458;45.328;9.514;2023-04-25T15:35:06;28.60;45.80
36424;DHT22;22458;45.328;9.514;2023-04-25T15:37:35;28.30;45.00
36424;DHT22;22458;45.328;9.514;2023-04-25T15:40:15;27.90;45.00
36424;DHT22;22458;45.328;9.514;2023-04-25T15:42:45;27.80;45.00
36424;DHT22;22458;45.328;9.514;2023-04-25T15:45:13;28.30;45.10
36424;DHT22;22458;45.328;9.514;2023-04-25T15:47:40;29.80;44.60
36424;DHT22;22458;45.328;9.514;2023-04-25T15:50:07;31.20;43.20